Time;durP1;ratioP1;P1;durP2;ratioP2;P2;SDS_P1;SDS_P2;PMS_P1;PMS_P2;Temp;Humidity;BMP_temperature;BMP_pressure;BME280_temperature;BME280_humidity;BME280_pressure;Samples;Min_cycle;Max_cycle;Signal;HPM_P1;HPM_P2
2023/07/10 00:01:52;;;;;;;;;;;;;;;21.47;62.73;101102.22;5134548;27;4337;-79
2023/07/10 00:04:18;;;;;;;;;;;;;;;21.46;62.87;101117.03;5138001;27;4747;-79
2023/07/10 00:06:45;;;;;;;;;;;;;;;21.46;62.61;101114.31;5121435;27;4777;-80
2023/07/10 00:09:13;;;;;;;;;;;;;;;21.44;62.95;101109.13;5120127;27;4657;-80
2023/07/10 00:11:40;;;;;;;;;;;;;;;21.43;62.83;101110.19;5114763;27;4552;-80
2023/07/10 00:14:06;;;;;;;;;;;;;;;21.43;62.69;101106.66;5120180;27;4538;-80
2023/07/10 00:16:33;;;;;;;;;;;;;;;21.41;62.56;101112.38;5116690;27;4806;-80
2023/07/10 00:18:59;;;;;;;;;;;;;;;21.41;62.60;101093.22;5095901;27;4545;-80
2023/07/10 00:21:26;;;;;;;;;;;;;;;21.41;62.69;101100.63;5109496;27;4238;-79
2023/07/10 00:23:53;;;;;;;;;;;;;;;21.41;62.76;101100.63;5109106;27;4338;-80
2023/07/10 00:26:19;;;;;;;;;;;;;;;21.38;62.60;101104.72;5112467;27;4245;-81
2023/07/10 00:28:46;;;;;;;;;;;;;;;21.39;62.66;101097.34;5105332;27;4449;-80
2023/07/10 00:31:13;;;;;;;;;;;;;;;21.38;62.50;101099.25;5090245;27;4494;-80
2023/07/10 00:33:39;;;;;;;;;;;;;;;21.36;62.77;101097.88;5103555;27;4375;-80
2023/07/10 00:36:05;;;;;;;;;;;;;;;21.36;62.55;101089.66;5110971;27;4450;-81
2023/07/10 00:38:33;;;;;;;;;;;;;;;21.35;62.31;101088.00;5109900;27;4630;-81
2023/07/10 00:41:01;;;;;;;;;;;;;;;21.33;62.49;101089.09;5098284;27;4775;-80
2023/07/10 00:43:27;;;;;;;;;;;;;;;21.31;62.35;101094.03;5106824;27;4779;-80
2023/07/10 00:45:54;;;;;;;;;;;;;;;21.31;62.56;101096.78;5115957;27;4327;-79
2023/07/10 00:48:20;;;;;;;;;;;;;;;21.30;62.21;101097.88;5117346;27;4625;-78
2023/07/10 00:50:48;;;;;;;;;;;;;;;21.29;62.24;101088.00;5115823;27;4596;-81
2023/07/10 00:53:14;;;;;;;;;;;;;;;21.28;62.40;101088.31;5114282;27;4704;-80
2023/07/10 00:55:41;;;;;;;;;;;;;;;21.27;62.60;101092.16;5111106;27;4370;-77
2023/07/10 00:58:07;;;;;;;;;;;;;;;21.26;62.32;101094.03;5115972;27;4689;-79
2023/07/10 01:00:35;;;;;;;;;;;;;;;21.25;62.28;101094.34;5094952;27;4234;-79
2023/07/10 01:03:01;;;;;;;;;;;;;;;21.24;62.38;101098.19;5095355;27;4951;-79
2023/07/10 01:05:28;;;;;;;;;;;;;;;21.22;62.39;101100.38;5118265;27;4503;-77
2023/07/10 01:07:54;;;;;;;;;;;;;;;21.20;62.51;101094.34;5103123;27;4532;-79
2023/07/10 01:10:21;;;;;;;;;;;;;;;21.21;62.45;101106.97;5092956;27;4639;-78
2023/07/10 01:12:48;;;;;;;;;;;;;;;21.19;62.26;101101.75;5114182;27;4452;-79
2023/07/10 01:15:14;;;;;;;;;;;;;;;21.18;62.28;101105.59;5114739;27;4762;-79
2023/07/10 01:17:41;;;;;;;;;;;;;;;21.17;62.28;101098.44;5117273;27;4591;-78
2023/07/10 01:20:08;;;;;;;;;;;;;;;21.16;62.44;101099.56;5113527;27;4438;-78
2023/07/10 01:22:36;;;;;;;;;;;;;;;21.16;62.08;101088.59;5097533;27;4191;-79
2023/07/10 01:25:03;;;;;;;;;;;;;;;21.16;62.32;101098.75;5091238;27;4236;-79
2023/07/10 01:27:29;;;;;;;;;;;;;;;21.14;62.25;101092.72;5111768;27;4327;-79
2023/07/10 01:29:56;;;;;;;;;;;;;;;21.14;62.24;101088.06;5113459;27;4381;-78
2023/07/10 01:32:22;;;;;;;;;;;;;;;21.12;62.34;101084.78;5105593;27;4336;-78
2023/07/10 01:34:49;;;;;;;;;;;;;;;21.11;61.95;101085.88;5110588;27;4254;-79
2023/07/10 01:37:15;;;;;;;;;;;;;;;21.10;62.17;101087.78;5110104;27;4253;-77
2023/07/10 01:39:42;;;;;;;;;;;;;;;21.09;62.28;101079.88;5102283;27;4495;-79
2023/07/10 01:42:08;;;;;;;;;;;;;;;21.08;62.14;101079.03;5110331;27;4730;-78
2023/07/10 01:44:35;;;;;;;;;;;;;;;21.07;62.18;101082.06;5094083;27;4393;-79
2023/07/10 01:47:01;;;;;;;;;;;;;;;21.06;62.22;101077.66;5101828;27;4842;-78
2023/07/10 01:49:28;;;;;;;;;;;;;;;21.06;62.22;101074.91;5114093;27;4652;-79
2023/07/10 01:51:54;;;;;;;;;;;;;;;21.04;62.02;101086.16;5100719;27;4357;-78
2023/07/10 01:54:21;;;;;;;;;;;;;;;21.04;61.96;101083.44;5102408;27;4473;-78
2023/07/10 01:56:47;;;;;;;;;;;;;;;21.02;61.95;101082.88;5099536;27;4493;-78
2023/07/10 01:59:14;;;;;;;;;;;;;;;21.01;61.88;101086.72;5092955;28;4249;-78
2023/07/10 02:01:40;;;;;;;;;;;;;;;21.00;62.15;101087.84;5106115;27;4367;-79
2023/07/10 02:04:07;;;;;;;;;;;;;;;21.00;62.17;101085.09;5105304;27;4285;-78
2023/07/10 02:06:33;;;;;;;;;;;;;;;20.98;61.88;101086.47;5104803;27;4442;-79
2023/07/10 02:09:00;;;;;;;;;;;;;;;20.98;62.02;101086.47;5092546;27;4431;-78
2023/07/10 02:11:27;;;;;;;;;;;;;;;20.96;61.99;101086.72;5103335;27;4495;-79
2023/07/10 02:13:53;;;;;;;;;;;;;;;20.96;61.83;101083.16;5085576;27;4612;-78
2023/07/10 02:16:20;;;;;;;;;;;;;;;20.95;61.93;101084.28;5103828;27;4201;-78
2023/07/10 02:18:49;;;;;;;;;;;;;;;20.93;62.04;101076.31;5101915;27;4151;-78
2023/07/10 02:21:16;;;;;;;;;;;;;;;20.93;61.75;101070.84;5092816;27;4543;-78
2023/07/10 02:23:47;;;;;;;;;;;;;;;20.92;62.05;101068.41;5101467;27;4497;-81
2023/07/10 02:26:14;;;;;;;;;;;;;;;20.90;61.93;101063.19;5090143;27;4371;-78
2023/07/10 02:31:32;;;;;;;;;;;;;;;20.89;61.93;101077.16;5094460;27;4603;-80
2023/07/10 02:33:59;;;;;;;;;;;;;;;20.86;61.78;101068.41;5103726;27;4296;-80
2023/07/10 02:36:25;;;;;;;;;;;;;;;20.86;61.76;101075.81;5098550;27;4491;-79
2023/07/10 02:38:52;;;;;;;;;;;;;;;20.85;61.77;101075.00;5093492;27;4272;-79
2023/07/10 02:41:18;;;;;;;;;;;;;;;20.84;61.66;101073.31;5106188;27;4584;-82
2023/07/10 02:43:45;;;;;;;;;;;;;;;20.83;61.75;101077.16;5105538;27;4459;-79
2023/07/10 02:46:11;;;;;;;;;;;;;;;20.82;61.53;101071.97;5102172;27;4519;-80
2023/07/10 02:48:38;;;;;;;;;;;;;;;20.81;61.66;101067.59;5105704;27;4569;-79
2023/07/10 02:51:04;;;;;;;;;;;;;;;20.80;61.73;101072.25;5106476;27;4828;-79
2023/07/10 02:53:31;;;;;;;;;;;;;;;20.79;61.67;101061.56;5091898;28;3840;-79
2023/07/10 02:55:58;;;;;;;;;;;;;;;20.78;61.84;101060.75;5109330;27;4581;-81
2023/07/10 02:58:24;;;;;;;;;;;;;;;20.78;61.68;101058.00;5110680;27;4505;-81
2023/07/10 03:00:51;;;;;;;;;;;;;;;20.77;61.77;101058.28;5106493;27;4509;-80
2023/07/10 03:03:17;;;;;;;;;;;;;;;20.76;61.67;101048.44;5105312;27;4777;-81
2023/07/10 03:05:44;;;;;;;;;;;;;;;20.75;61.73;101055.00;5108992;27;4473;-81
2023/07/10 03:08:11;;;;;;;;;;;;;;;20.73;61.43;101052.53;5107644;27;4254;-80
2023/07/10 03:10:37;;;;;;;;;;;;;;;20.72;61.67;101056.38;5094310;27;4293;-79
2023/07/10 03:13:04;;;;;;;;;;;;;;;20.71;61.70;101078.56;5108963;27;4410;-81
2023/07/10 03:15:30;;;;;;;;;;;;;;;20.70;61.67;101069.50;5114980;27;4664;-82
2023/07/10 03:17:57;;;;;;;;;;;;;;;20.68;61.24;101074.44;5109576;27;4333;-81
2023/07/10 03:20:23;;;;;;;;;;;;;;;20.69;61.23;101069.78;5091069;27;3459;-82
2023/07/10 03:22:50;;;;;;;;;;;;;;;20.68;61.49;101063.50;5097168;27;3896;-81
2023/07/10 03:25:16;;;;;;;;;;;;;;;20.66;61.53;101059.41;5108274;27;4510;-81
2023/07/10 03:27:43;;;;;;;;;;;;;;;20.65;61.16;101055.84;5117364;27;4322;-81
2023/07/10 03:30:10;;;;;;;;;;;;;;;20.65;61.14;101047.63;5115409;27;4314;-81
2023/07/10 03:32:36;;;;;;;;;;;;;;;20.64;61.50;101037.75;5105560;27;4128;-82
2023/07/10 03:35:03;;;;;;;;;;;;;;;20.63;61.42;101030.66;5114603;27;4044;-82
2023/07/10 03:37:30;;;;;;;;;;;;;;;20.62;61.39;101018.09;5114908;27;4433;-82
2023/07/10 03:39:56;;;;;;;;;;;;;;;20.61;61.16;101013.69;5103208;27;4460;-82
2023/07/10 03:42:23;;;;;;;;;;;;;;;20.60;61.42;101001.94;5119522;27;4170;-82
2023/07/10 03:44:49;;;;;;;;;;;;;;;20.59;61.40;101007.69;5107792;27;4078;-82
2023/07/10 03:47:16;;;;;;;;;;;;;;;20.58;61.34;101011.50;5129247;27;4138;-81
2023/07/10 03:49:43;;;;;;;;;;;;;;;20.58;61.37;101019.72;5144649;27;4455;-81
2023/07/10 03:52:09;;;;;;;;;;;;;;;20.60;61.17;101020.28;5128913;27;4465;-82
2023/07/10 03:54:36;;;;;;;;;;;;;;;20.57;61.29;101018.09;5106006;27;4213;-83
2023/07/10 03:57:02;;;;;;;;;;;;;;;20.59;61.08;101005.78;5117646;27;4513;-82
2023/07/10 03:59:29;;;;;;;;;;;;;;;20.57;61.10;101004.41;5113238;27;4525;-83
2023/07/10 04:01:56;;;;;;;;;;;;;;;20.57;61.00;101004.41;5116504;27;4280;-82
2023/07/10 04:04:22;;;;;;;;;;;;;;;20.54;61.20;100999.47;5105127;27;4653;-83
2023/07/10 04:06:49;;;;;;;;;;;;;;;20.55;60.97;100999.19;5119683;27;4628;-83
2023/07/10 04:09:15;;;;;;;;;;;;;;;20.53;60.98;101000.56;5112829;27;4379;-83
2023/07/10 04:11:42;;;;;;;;;;;;;;;20.58;60.90;101000.56;5129176;27;4721;-82
2023/07/10 04:14:36;;;;;;;;;;;;;;;20.60;60.77;101012.88;5130180;27;4611;-83
2023/07/10 04:17:27;;;;;;;;;;;;;;;20.55;60.85;101014.78;5112834;27;4087;-82
2023/07/10 04:20:20;;;;;;;;;;;;;;;20.52;60.63;101023.53;5125012;27;4396;-84
2023/07/10 04:23:11;;;;;;;;;;;;;;;20.66;60.28;101016.44;5113050;27;4110;-84
2023/07/10 04:26:03;;;;;;;;;;;;;;;20.78;60.15;101016.94;5110561;27;3912;-84
2023/07/10 04:28:55;;;;;;;;;;;;;;;20.64;60.07;101018.63;5137756;27;3711;-84
2023/07/10 04:31:47;;;;;;;;;;;;;;;20.64;60.33;101016.69;5115666;27;4593;-84
2023/07/10 04:34:14;;;;;;;;;;;;;;;20.57;60.38;101021.63;5111850;27;4529;-84
2023/07/10 04:37:01;;;;;;;;;;;;;;;20.55;60.33;101017.53;5110794;27;4182;-84
2023/07/10 04:39:49;;;;;;;;;;;;;;;20.78;59.68;101010.66;5112064;27;4218;-83
2023/07/10 04:42:39;;;;;;;;;;;;;;;20.60;60.17;100996.47;5122007;27;3883;-83
2023/07/10 04:45:07;;;;;;;;;;;;;;;20.79;59.65;100995.88;5100616;27;4305;-84
2023/07/10 04:47:58;;;;;;;;;;;;;;;20.62;60.08;100996.19;5116877;27;4364;-83
2023/07/10 04:50:25;;;;;;;;;;;;;;;20.55;60.12;100998.38;5096219;27;4592;-84
2023/07/10 04:52:52;;;;;;;;;;;;;;;20.59;60.00;100994.81;5114121;27;4360;-83
2023/07/10 04:55:19;;;;;;;;;;;;;;;20.67;59.84;100992.63;5100287;27;4655;-84
2023/07/10 04:57:45;;;;;;;;;;;;;;;20.64;59.63;100985.78;5111112;27;4371;-83
2023/07/10 05:00:12;;;;;;;;;;;;;;;20.59;59.91;100996.75;5101293;27;4312;-83
2023/07/10 05:02:38;;;;;;;;;;;;;;;20.59;59.81;100988.53;5127757;27;3764;-84
2023/07/10 05:05:05;;;;;;;;;;;;;;;20.61;59.62;100984.41;5124048;27;4681;-82
2023/07/10 05:07:31;;;;;;;;;;;;;;;20.51;59.82;100975.38;5118971;27;4371;-82
2023/07/10 05:09:58;;;;;;;;;;;;;;;20.48;60.08;100984.13;5113727;27;4287;-84
2023/07/10 05:12:26;;;;;;;;;;;;;;;20.54;59.86;100983.88;5124765;27;4116;-83
2023/07/10 05:14:52;;;;;;;;;;;;;;;20.51;59.96;100984.41;5114274;27;4353;-81
2023/07/10 05:17:19;;;;;;;;;;;;;;;20.66;59.33;100980.03;5117781;27;4704;-81
2023/07/10 05:19:49;;;;;;;;;;;;;;;20.62;59.57;100980.59;5110339;27;4640;-83
2023/07/10 05:22:16;;;;;;;;;;;;;;;20.71;59.20;100986.31;5118374;27;4236;-81
2023/07/10 05:24:42;;;;;;;;;;;;;;;20.51;59.65;100987.13;5118427;27;4660;-82
2023/07/10 05:27:09;;;;;;;;;;;;;;;20.56;59.63;100983.59;5117813;27;4387;-82
2023/07/10 05:29:35;;;;;;;;;;;;;;;20.49;59.61;100989.31;5106341;27;4235;-82
2023/07/10 05:32:02;;;;;;;;;;;;;;;20.48;59.75;100981.41;5122375;27;4472;-83
2023/07/10 05:34:29;;;;;;;;;;;;;;;20.53;59.62;100987.72;5137978;27;4254;-82
2023/07/10 05:36:55;;;;;;;;;;;;;;;20.51;59.75;100984.41;5121813;27;3721;-82
2023/07/10 05:39:22;;;;;;;;;;;;;;;20.50;59.58;100981.94;5119183;27;4331;-83
2023/07/10 05:41:49;;;;;;;;;;;;;;;20.46;59.82;100981.66;5112318;27;4194;-82
2023/07/10 05:44:15;;;;;;;;;;;;;;;20.61;59.27;100981.66;5096849;27;3311;-82
2023/07/10 05:46:42;;;;;;;;;;;;;;;20.54;59.42;100974.88;5118543;27;4428;-83
2023/07/10 05:49:08;;;;;;;;;;;;;;;20.39;59.74;100979.22;5118344;27;4793;-82
2023/07/10 05:51:35;;;;;;;;;;;;;;;20.34;59.82;100962.81;5101483;27;4602;-83
2023/07/10 05:54:01;;;;;;;;;;;;;;;20.35;59.85;100966.34;5116918;27;4678;-83
2023/07/10 05:56:28;;;;;;;;;;;;;;;20.30;59.79;100967.19;5116102;27;4593;-83
2023/07/10 05:58:55;;;;;;;;;;;;;;;20.31;59.97;100966.09;5096727;27;4563;-83
2023/07/10 06:01:21;;;;;;;;;;;;;;;20.32;59.73;100973.19;5108344;27;4782;-83
2023/07/10 06:03:48;;;;;;;;;;;;;;;20.31;59.76;100968.81;5120024;27;4680;-83
2023/07/10 06:06:14;;;;;;;;;;;;;;;20.30;59.78;100958.19;5117599;27;4612;-83
2023/07/10 06:08:41;;;;;;;;;;;;;;;20.27;60.08;100956.81;5110028;27;4897;-82
2023/07/10 06:11:07;;;;;;;;;;;;;;;20.24;59.87;100954.63;5115622;27;4291;-83
2023/07/10 06:13:34;;;;;;;;;;;;;;;20.26;59.83;100948.88;5115742;27;4464;-83
2023/07/10 06:16:00;;;;;;;;;;;;;;;20.26;60.15;100951.59;5117290;27;4710;-83
2023/07/10 06:18:27;;;;;;;;;;;;;;;20.24;60.15;100942.88;5110465;27;4476;-82
2023/07/10 06:20:53;;;;;;;;;;;;;;;20.24;59.82;100945.59;5096588;27;4964;-83
2023/07/10 06:23:20;;;;;;;;;;;;;;;20.24;59.80;100945.59;5104984;28;4371;-82
2023/07/10 06:25:47;;;;;;;;;;;;;;;20.22;60.19;100943.13;5107103;27;4810;-83
2023/07/10 06:28:13;;;;;;;;;;;;;;;20.22;59.83;100942.31;5124082;27;4792;-82
2023/07/10 06:30:40;;;;;;;;;;;;;;;20.21;59.74;100949.69;5099340;28;4860;-83
2023/07/10 06:33:06;;;;;;;;;;;;;;;20.20;59.89;100940.66;5098693;27;4792;-83
2023/07/10 06:35:33;;;;;;;;;;;;;;;20.20;59.83;100937.91;5114318;27;4893;-83
2023/07/10 06:37:59;;;;;;;;;;;;;;;20.19;59.81;100932.75;5106179;27;4601;-82
2023/07/10 06:40:26;;;;;;;;;;;;;;;20.20;59.81;100929.72;5119383;27;4789;-83
2023/07/10 06:42:53;;;;;;;;;;;;;;;20.20;59.75;100923.44;5098698;27;4774;-82
2023/07/10 06:45:19;;;;;;;;;;;;;;;20.20;59.74;100923.44;5122494;27;4718;-83
2023/07/10 06:47:46;;;;;;;;;;;;;;;20.21;59.81;100916.88;5096129;27;4837;-83
2023/07/10 06:50:12;;;;;;;;;;;;;;;20.22;59.94;100914.97;5097096;27;4961;-82
2023/07/10 06:52:39;;;;;;;;;;;;;;;20.22;59.57;100910.31;5114591;27;4599;-82
2023/07/10 06:55:05;;;;;;;;;;;;;;;20.22;59.47;100909.50;5103856;27;4855;-83
2023/07/10 06:57:32;;;;;;;;;;;;;;;20.23;59.87;100901.00;5120220;27;4558;-82
2023/07/10 06:59:59;;;;;;;;;;;;;;;20.24;59.64;100905.41;5116124;27;5429;-81
2023/07/10 07:02:26;;;;;;;;;;;;;;;20.24;59.47;100905.41;5118920;27;4282;-82
2023/07/10 07:04:52;;;;;;;;;;;;;;;20.24;59.82;100899.94;5105023;27;4329;-82
2023/07/10 07:07:19;;;;;;;;;;;;;;;20.25;59.52;100898.81;5104272;27;4503;-82
2023/07/10 07:09:45;;;;;;;;;;;;;;;20.26;59.58;100899.63;5118162;27;4708;-83
2023/07/10 07:12:12;;;;;;;;;;;;;;;20.27;59.51;100896.63;5116857;27;4762;-82
2023/07/10 07:14:38;;;;;;;;;;;;;;;20.27;59.53;100893.09;5105164;27;4979;-82
2023/07/10 07:17:05;;;;;;;;;;;;;;;20.27;59.47;100885.69;5122275;27;5162;-82
2023/07/10 07:19:32;;;;;;;;;;;;;;;20.29;59.46;100899.09;5146488;27;4882;-81
2023/07/10 07:21:59;;;;;;;;;;;;;;;20.29;59.50;100888.97;5129100;27;4683;-82
2023/07/10 07:24:25;;;;;;;;;;;;;;;20.31;59.58;100891.44;5107959;27;4752;-81
2023/07/10 07:26:52;;;;;;;;;;;;;;;20.31;59.34;100889.50;5104249;27;4301;-82
2023/07/10 07:29:18;;;;;;;;;;;;;;;20.31;59.41;100886.78;5116274;27;4948;-83
2023/07/10 07:31:45;;;;;;;;;;;;;;;20.32;59.29;100895.78;5102941;27;4707;-82
2023/07/10 07:34:11;;;;;;;;;;;;;;;20.33;59.55;100889.25;5118149;27;4936;-81
2023/07/10 07:36:38;;;;;;;;;;;;;;;20.33;59.16;100883.78;5118938;27;4698;-82
2023/07/10 07:39:08;;;;;;;;;;;;;;;20.33;59.23;100884.59;5117034;27;4789;-83
2023/07/10 07:41:34;;;;;;;;;;;;;;;20.35;59.34;100878.84;5116093;27;4750;-82
2023/07/10 07:44:01;;;;;;;;;;;;;;;20.33;59.28;100879.13;5105555;27;4749;-82
2023/07/10 07:46:27;;;;;;;;;;;;;;;20.35;59.26;100878.84;5117710;27;4608;-82
2023/07/10 07:48:55;;;;;;;;;;;;;;;20.35;59.25;100871.47;5109610;27;4627;-81
2023/07/10 07:51:21;;;;;;;;;;;;;;;20.37;59.22;100882.94;5103119;27;4750;-82
2023/07/10 07:53:48;;;;;;;;;;;;;;;20.37;59.19;100876.66;5119370;27;4540;-81
2023/07/10 07:56:15;;;;;;;;;;;;;;;20.36;59.11;100864.91;5118089;27;4496;-82
2023/07/10 07:58:41;;;;;;;;;;;;;;;20.37;59.11;100861.06;5124399;27;4596;-82
2023/07/10 08:01:09;;;;;;;;;;;;;;;20.38;59.40;100862.72;5120013;27;4999;-80
2023/07/10 08:03:36;;;;;;;;;;;;;;;20.39;59.15;100855.31;5102987;27;4679;-81
2023/07/10 08:06:02;;;;;;;;;;;;;;;20.41;59.12;100855.84;5098483;27;4824;-81
2023/07/10 08:08:29;;;;;;;;;;;;;;;20.40;59.04;100851.47;5117980;27;4740;-81
2023/07/10 08:10:56;;;;;;;;;;;;;;;20.40;59.02;100851.47;5125440;27;4800;-83
2023/07/10 08:13:23;;;;;;;;;;;;;;;20.40;59.01;100846.81;5123968;27;4479;-82
2023/07/10 08:15:49;;;;;;;;;;;;;;;20.41;59.20;100848.47;5114721;27;4472;-82
2023/07/10 08:18:16;;;;;;;;;;;;;;;20.41;59.02;100847.63;5133087;27;4600;-81
2023/07/10 08:20:43;;;;;;;;;;;;;;;20.42;59.13;100846.56;5115645;27;4713;-82
2023/07/10 08:23:09;;;;;;;;;;;;;;;20.41;59.40;100839.44;5114400;27;4523;-82
2023/07/10 08:25:36;;;;;;;;;;;;;;;20.42;59.18;100841.91;5121610;27;4528;-81
2023/07/10 08:28:02;;;;;;;;;;;;;;;20.40;59.07;100844.09;5141652;27;4599;-82
2023/07/10 08:30:29;;;;;;;;;;;;;;;20.42;59.38;100843.81;5119507;27;4240;-82
2023/07/10 08:32:56;;;;;;;;;;;;;;;20.39;59.44;100831.50;5117085;27;4737;-83
2023/07/10 08:35:22;;;;;;;;;;;;;;;20.39;59.37;100828.78;5099225;27;4666;-81
2023/07/10 08:37:50;;;;;;;;;;;;;;;20.39;59.28;100822.50;5114707;27;4568;-83
2023/07/10 08:40:17;;;;;;;;;;;;;;;20.39;59.51;100826.03;5119237;27;4717;-81
2023/07/10 08:42:43;;;;;;;;;;;;;;;20.40;59.56;100816.72;5115747;27;4729;-83
2023/07/10 08:45:10;;;;;;;;;;;;;;;20.39;59.24;100817.84;5114948;27;4527;-82
2023/07/10 08:47:36;;;;;;;;;;;;;;;20.39;59.25;100817.03;5102060;27;4797;-82
2023/07/10 08:50:06;;;;;;;;;;;;;;;20.38;59.21;100813.47;5117359;27;4789;-82
2023/07/10 08:52:32;;;;;;;;;;;;;;;20.38;59.35;100807.16;5114810;27;4948;-80
2023/07/10 08:54:58;;;;;;;;;;;;;;;20.38;59.36;100804.44;5109157;27;4819;-85
2023/07/10 08:57:25;;;;;;;;;;;;;;;20.37;59.58;100800.88;5099097;27;4740;-82
2023/07/10 08:59:52;;;;;;;;;;;;;;;20.36;59.60;100801.97;5114061;27;4729;-80
2023/07/10 09:02:18;;;;;;;;;;;;;;;20.37;59.59;100805.53;5109775;27;4752;-80
2023/07/10 09:04:45;;;;;;;;;;;;;;;20.37;59.55;100798.16;5102064;27;4697;-82
2023/07/10 09:07:11;;;;;;;;;;;;;;;20.38;59.48;100799.81;5113019;27;4576;-83
2023/07/10 09:09:38;;;;;;;;;;;;;;;20.38;59.63;100791.59;5112544;27;4697;-82
2023/07/10 09:12:05;;;;;;;;;;;;;;;20.39;59.58;100795.16;5112578;27;4756;-81
2023/07/10 09:14:31;;;;;;;;;;;;;;;20.38;59.46;100788.00;5112371;27;4931;-82
2023/07/10 09:16:58;;;;;;;;;;;;;;;20.38;59.66;100788.84;5115634;27;4945;-82
2023/07/10 09:19:24;;;;;;;;;;;;;;;20.39;59.64;100787.75;5101258;27;4753;-81
2023/07/10 09:21:51;;;;;;;;;;;;;;;20.40;59.68;100781.16;5098552;27;4724;-80
2023/07/10 09:24:17;;;;;;;;;;;;;;;20.40;59.58;100770.22;5114263;27;4681;-81
2023/07/10 09:26:44;;;;;;;;;;;;;;;20.39;59.67;100778.72;5113582;27;4824;-82
2023/07/10 09:29:14;;;;;;;;;;;;;;;20.40;59.73;100769.41;5108918;27;4819;-81
2023/07/10 09:31:41;;;;;;;;;;;;;;;20.39;59.67;100770.53;5110250;27;4785;-82
2023/07/10 09:34:07;;;;;;;;;;;;;;;20.40;59.95;100774.88;5114943;27;4826;-81
2023/07/10 09:36:34;;;;;;;;;;;;;;;20.41;59.98;100768.31;5111813;27;4818;-80
2023/07/10 09:39:03;;;;;;;;;;;;;;;20.41;59.91;100765.56;5135368;27;4816;-80
2023/07/10 09:41:30;;;;;;;;;;;;;;;20.41;59.76;100760.09;5106035;27;4722;-80
2023/07/10 09:43:56;;;;;;;;;;;;;;;20.41;59.92;100758.22;5113692;27;5007;-79
2023/07/10 09:46:23;;;;;;;;;;;;;;;20.42;59.80;100756.28;5112040;27;4548;-80
2023/07/10 09:48:49;;;;;;;;;;;;;;;20.43;59.82;100757.91;5111633;27;4595;-81
2023/07/10 09:51:23;;;;;;;;;;;;;;;20.45;59.75;100754.91;5111252;27;4749;-81
2023/07/10 09:53:50;;;;;;;;;;;;;;;20.45;60.01;100754.91;5091393;28;4580;-80
2023/07/10 09:56:16;;;;;;;;;;;;;;;20.45;60.05;100755.72;5112857;27;4754;-81
2023/07/10 09:58:45;;;;;;;;;;;;;;;20.48;59.55;100748.88;5103777;27;4831;-79
2023/07/10 10:01:11;;;;;;;;;;;;;;;20.48;59.56;100746.16;5091217;27;4694;-81
2023/07/10 10:03:39;;;;;;;;;;;;;;;20.51;59.91;100753.78;5111738;27;4907;-81
2023/07/10 10:06:05;;;;;;;;;;;;;;;20.49;59.69;100747.78;5112341;27;4593;-80
2023/07/10 10:08:32;;;;;;;;;;;;;;;20.51;59.51;100754.59;5098522;27;4738;-82
2023/07/10 10:11:04;;;;;;;;;;;;;;;20.50;59.79;100743.91;5113383;27;4674;-79
2023/07/10 10:13:31;;;;;;;;;;;;;;;20.53;59.88;100744.22;5112734;27;4591;-84
2023/07/10 10:16:03;;;;;;;;;;;;;;;20.52;59.96;100739.84;5115054;27;4736;-81
2023/07/10 10:18:29;;;;;;;;;;;;;;;20.51;59.84;100740.09;5113108;27;4694;-80
2023/07/10 10:20:56;;;;;;;;;;;;;;;20.53;59.67;100736.03;5115400;27;4932;-80
2023/07/10 10:23:22;;;;;;;;;;;;;;;20.53;59.94;100735.19;5117167;27;4778;-79
2023/07/10 10:25:49;;;;;;;;;;;;;;;20.53;59.81;100736.03;5118370;27;4800;-79
2023/07/10 10:28:15;;;;;;;;;;;;;;;20.52;59.97;100737.09;5114768;27;4780;-80
2023/07/10 10:30:42;;;;;;;;;;;;;;;20.53;59.73;100729.72;5107541;27;4665;-79
2023/07/10 10:33:09;;;;;;;;;;;;;;;20.54;59.77;100729.44;5114864;27;5262;-81
2023/07/10 10:35:35;;;;;;;;;;;;;;;20.55;59.89;100731.06;5114393;27;4580;-80
2023/07/10 10:38:02;;;;;;;;;;;;;;;20.57;59.84;100734.34;5115112;27;4540;-79
2023/07/10 10:40:28;;;;;;;;;;;;;;;20.58;59.72;100726.94;5111632;27;4595;-79
2023/07/10 10:42:55;;;;;;;;;;;;;;;20.58;59.80;100725.03;5100356;27;4945;-80
2023/07/10 10:45:21;;;;;;;;;;;;;;;20.59;59.85;100728.63;5094953;27;4757;-80
2023/07/10 10:47:48;;;;;;;;;;;;;;;20.59;59.78;100725.88;5111868;27;4788;-82
2023/07/10 10:50:15;;;;;;;;;;;;;;;20.60;59.63;100719.28;5103641;27;4760;-80
2023/07/10 10:52:41;;;;;;;;;;;;;;;20.61;59.81;100715.44;5113144;27;4612;-80
2023/07/10 10:55:08;;;;;;;;;;;;;;;20.61;59.63;100718.19;5113870;27;4497;-79
2023/07/10 10:57:34;;;;;;;;;;;;;;;20.61;59.78;100710.78;5098077;27;4534;-79
2023/07/10 11:00:01;;;;;;;;;;;;;;;20.62;59.89;100711.63;5099752;27;4472;-80
2023/07/10 11:02:27;;;;;;;;;;;;;;;20.62;59.90;100708.91;5114630;27;4634;-79
2023/07/10 11:04:54;;;;;;;;;;;;;;;20.62;59.99;100703.41;5108296;27;4654;-79
2023/07/10 11:07:20;;;;;;;;;;;;;;;20.64;60.01;100703.94;5097039;27;4596;-79
2023/07/10 11:09:47;;;;;;;;;;;;;;;20.63;60.01;100702.31;5094518;27;4533;-78
2023/07/10 11:12:14;;;;;;;;;;;;;;;20.64;59.76;100695.72;5116091;27;4579;-78
2023/07/10 11:14:40;;;;;;;;;;;;;;;20.65;59.87;100689.16;5095227;28;4636;-79
2023/07/10 11:17:07;;;;;;;;;;;;;;;20.65;60.06;100691.91;5111765;27;4605;-78
2023/07/10 11:19:33;;;;;;;;;;;;;;;20.66;59.80;100688.06;5112015;27;4615;-80
2023/07/10 11:22:00;;;;;;;;;;;;;;;20.67;59.88;100692.41;5099705;27;4936;-79
2023/07/10 11:24:27;;;;;;;;;;;;;;;20.68;59.76;100685.88;5111064;27;4654;-80
2023/07/10 11:26:53;;;;;;;;;;;;;;;20.68;60.09;100685.88;5096434;27;4867;-79
2023/07/10 11:29:20;;;;;;;;;;;;;;;20.68;60.17;100677.66;5098642;27;5114;-79
2023/07/10 11:31:46;;;;;;;;;;;;;;;20.70;60.04;100671.88;5111110;27;4659;-80
2023/07/10 11:34:13;;;;;;;;;;;;;;;20.71;60.13;100666.16;5114501;27;4730;-80
2023/07/10 11:36:39;;;;;;;;;;;;;;;20.70;60.15;100675.44;5110319;27;4666;-80
2023/07/10 11:39:06;;;;;;;;;;;;;;;20.72;59.91;100673.25;5113587;27;4591;-81
2023/07/10 11:41:32;;;;;;;;;;;;;;;20.73;60.23;100666.66;5111503;27;4426;-81
2023/07/10 11:43:59;;;;;;;;;;;;;;;20.72;59.87;100659.56;5112895;27;4639;-80
2023/07/10 11:46:25;;;;;;;;;;;;;;;20.73;60.27;100666.66;5131569;27;4448;-80
2023/07/10 11:48:52;;;;;;;;;;;;;;;20.75;60.14;100658.16;5113412;27;4594;-80
2023/07/10 11:51:24;;;;;;;;;;;;;;;20.75;60.34;100648.03;5114349;27;4979;-80
2023/07/10 11:53:51;;;;;;;;;;;;;;;20.76;60.04;100648.84;5136942;27;4791;-80
2023/07/10 11:56:17;;;;;;;;;;;;;;;20.76;60.12;100646.13;5131855;27;4976;-79
2023/07/10 11:58:44;;;;;;;;;;;;;;;20.77;60.34;100648.59;5141339;27;4442;-80
2023/07/10 12:01:10;;;;;;;;;;;;;;;20.77;60.34;100651.31;5119518;27;4575;-79
2023/07/10 12:03:38;;;;;;;;;;;;;;;20.78;60.16;100642.00;5116406;27;4893;-80
2023/07/10 12:06:04;;;;;;;;;;;;;;;20.78;60.36;100642.00;5105214;27;4054;-79
2023/07/10 12:08:37;;;;;;;;;;;;;;;20.80;60.28;100630.78;5114007;27;4435;-82
2023/07/10 12:11:04;;;;;;;;;;;;;;;20.80;60.24;100626.13;5122125;27;4413;-78
2023/07/10 12:13:30;;;;;;;;;;;;;;;20.81;60.42;100618.72;5123649;27;4589;-81
2023/07/10 12:15:57;;;;;;;;;;;;;;;20.83;60.31;100622.00;5115823;27;4635;-81
2023/07/10 12:18:24;;;;;;;;;;;;;;;20.82;60.35;100637.59;5115618;27;4650;-80
2023/07/10 12:20:50;;;;;;;;;;;;;;;20.84;59.98;100651.78;5102272;27;4939;-81
2023/07/10 12:23:17;;;;;;;;;;;;;;;20.85;60.46;100682.72;5118463;27;3890;-82
2023/07/10 12:25:43;;;;;;;;;;;;;;;20.83;60.39;100691.22;5117418;27;4598;-89
2023/07/10 12:28:10;;;;;;;;;;;;;;;20.83;60.54;100696.69;5117328;27;4307;-89
2023/07/10 12:30:38;;;;;;;;;;;;;;;20.85;60.36;100689.03;5124353;27;4708;-89
2023/07/10 12:33:05;;;;;;;;;;;;;;;20.85;60.66;100685.44;5116290;27;4650;-77
2023/07/10 12:35:31;;;;;;;;;;;;;;;20.87;60.48;100691.47;5115921;27;4788;-79
2023/07/10 12:37:58;;;;;;;;;;;;;;;20.87;60.52;100686.00;5114856;27;5027;-86
2023/07/10 12:40:28;;;;;;;;;;;;;;;20.89;60.53;100683.00;5110302;27;4803;-83
2023/07/10 12:42:54;;;;;;;;;;;;;;;20.91;60.47;100678.03;5093258;27;4799;-82
2023/07/10 12:45:21;;;;;;;;;;;;;;;20.90;60.62;100679.94;5111794;27;4334;-84
2023/07/10 12:47:48;;;;;;;;;;;;;;;20.90;60.59;100682.69;5106718;27;4192;-85
2023/07/10 12:50:14;;;;;;;;;;;;;;;20.90;60.32;100671.72;5103648;27;4523;-84
2023/07/10 12:52:41;;;;;;;;;;;;;;;20.91;60.64;100678.84;5122429;27;4754;-86